Meteorología y climatología de Navarra
Datos de la estación - Meteo Navarra

Estación de Estella GN

Altitud 486 m.


Datos desde el 11/10/2018 hasta el 12/10/2018 en horario solar
Los datos son PROVISIONALES

Anterior Página 1 de 1 Siguiente Descargar: Formato para Excel 2000 o superior   Formato csv   Formato para OpenOffice Calc
Fecha Temperatura Humedad relativa Radiación global Insolación Precipitación Velocidad viento 10 m Velocidad viento 10 m Dirección viento 10 m
ºC % W/m² s l/m² m/s km/h º
11/10/2018 0:00 13.6 87 0.0 0 0.0 2.4 8.6 78
11/10/2018 0:10 13.7 87 0.0 0 0.0 2.5 9.0 84
11/10/2018 0:20 13.6 87 0.0 0 0.0 2.7 9.6 87
11/10/2018 0:30 13.6 87 0.0 0 0.0 2.2 7.9 86
11/10/2018 0:40 13.6 87 0.0 0 0.0 2.1 7.6 82
11/10/2018 0:50 13.6 87 0.0 0 0.0 1.5 5.2 84
11/10/2018 1:00 13.6 88 0.0 0 0.0 1.6 5.7 84
11/10/2018 1:10 13.6 88 0.0 0 0.0 1.3 4.7 83
11/10/2018 1:20 13.5 89 0.0 0 0.0 1.6 5.9 77
11/10/2018 1:30 13.6 89 0.0 0 0.0 1.7 6.3 73
11/10/2018 1:40 13.6 89 0.0 0 0.0 1.7 6.2 71
11/10/2018 1:50 13.5 89 0.0 0 0.0 2.1 7.5 84
11/10/2018 2:00 13.4 90 0.0 0 0.0 2.4 8.7 90
11/10/2018 2:10 13.5 90 0.0 0 0.0 2.9 10.6 83
11/10/2018 2:20 13.6 90 0.0 0 0.0 2.6 9.5 84
11/10/2018 2:30 13.6 90 0.0 0 0.0 2.6 9.3 81
11/10/2018 2:40 13.5 91 0.0 0 0.0 2.6 9.2 87
11/10/2018 2:50 13.4 91 0.0 0 0.0 2.5 8.9 85
11/10/2018 3:00 13.3 91 0.0 0 0.0 2.3 8.3 89
11/10/2018 3:10 13.3 91 0.0 0 0.0 2.5 9.0 87
11/10/2018 3:20 13.3 91 0.0 0 0.0 2.3 8.4 83
11/10/2018 3:30 13.3 91 0.0 0 0.0 1.8 6.6 86
11/10/2018 3:40 13.2 91 0.0 0 0.0 1.7 6.1 83
11/10/2018 3:50 13.4 90 0.0 0 0.0 2.4 8.7 82
11/10/2018 4:00 13.4 90 0.0 0 0.0 2.8 10.0 77
11/10/2018 4:10 13.4 90 0.0 0 0.0 2.7 9.7 80
11/10/2018 4:20 13.5 90 0.0 0 0.0 2.2 7.8 80
11/10/2018 4:30 13.6 90 0.0 0 0.0 2.4 8.7 76
11/10/2018 4:40 13.6 90 0.0 0 0.0 2.4 8.7 76
11/10/2018 4:50 13.5 90 0.0 0 0.0 2.3 8.3 82
11/10/2018 5:00 13.5 91 0.0 0 0.0 2.4 8.6 79
11/10/2018 5:10 13.5 91 0.0 0 0.0 2.5 9.0 76
11/10/2018 5:20 13.4 91 0.0 0 0.0 2.9 10.4 75
11/10/2018 5:30 13.4 91 0.0 0 0.0 2.8 10.2 81
11/10/2018 5:40 13.3 92 0.0 0 0.0 2.4 8.6 80
11/10/2018 5:50 13.3 91 0.0 0 0.0 1.9 6.9 75
11/10/2018 6:00 13.4 91 0.0 0 0.0 2.2 8.0 78
11/10/2018 6:10 13.5 91 0.0 0 0.0 1.9 6.9 81
11/10/2018 6:20 13.8 90 0.0 0 0.0 2.3 8.2 88
11/10/2018 6:30 14.0 90 0.0 0 0.0 2.6 9.3 95
11/10/2018 6:40 14.0 90 19.3 0 0.0 2.4 8.5 94
11/10/2018 6:50 14.0 90 15.2 0 0.0 1.8 6.6 88
11/10/2018 7:00 14.0 90 2.2 0 0.0 1.6 5.7 96
11/10/2018 7:10 14.0 90 25.4 0 0.0 2.4 8.5 60
11/10/2018 7:20 14.1 90 31.4 0 0.0 1.8 6.6 77
11/10/2018 7:30 14.1 90 47.9 0 0.0 1.9 6.7 73
11/10/2018 7:40 14.3 89 67.1 0 0.0 2.3 8.4 64
11/10/2018 7:50 14.4 88 72.6 0 0.0 2.5 8.9 66
11/10/2018 8:00 14.7 88 72.2 0 0.0 1.4 4.9 85
11/10/2018 8:10 15.0 87 101.1 0 0.0 1.9 6.9 93
11/10/2018 8:20 15.3 86 111.2 0 0.0 1.9 6.7 84
11/10/2018 8:30 15.4 85 113.3 0 0.0 2.0 7.1 88
11/10/2018 8:40 15.6 84 149.8 0 0.0 1.9 6.8 91
11/10/2018 8:50 16.1 82 236.0 216 0.0 1.6 5.7 86
11/10/2018 9:00 17.3 76 544.6 600 0.0 1.1 3.8 149
11/10/2018 9:10 18.6 71 541.2 600 0.0 1.6 5.9 166
11/10/2018 9:20 18.5 70 355.9 514 0.0 2.0 7.0 178
11/10/2018 9:30 18.1 70 266.9 180 0.0 2.1 7.5 185
11/10/2018 9:40 18.4 69 577.5 568 0.0 2.1 7.5 179
11/10/2018 9:50 19.4 66 597.1 600 0.0 1.7 6.2 167
11/10/2018 10:00 19.8 63 336.8 242 0.0 1.9 7.0 169
11/10/2018 10:10 19.3 65 319.3 320 0.0 2.2 7.9 183
11/10/2018 10:20 19.1 66 243.1 0 0.0 1.7 6.2 186
11/10/2018 10:30 19.2 66 252.4 0 0.0 1.5 5.4 182
11/10/2018 10:40 19.4 66 383.1 482 0.0 1.9 6.7 182
11/10/2018 10:50 19.8 64 475.2 600 0.0 3.1 11.0 196
11/10/2018 11:00 19.8 63 499.5 600 0.0 3.2 11.3 191
11/10/2018 11:10 19.7 63 299.7 72 0.0 2.8 10.1 195
11/10/2018 11:20 19.7 64 342.9 370 0.0 1.9 6.9 187
11/10/2018 11:30 20.0 64 346.7 228 0.0 2.0 7.1 177
11/10/2018 11:40 19.7 66 313.1 0 0.0 1.5 5.5 183
11/10/2018 11:50 19.6 67 240.6 0 0.0 1.8 6.5 153
11/10/2018 12:00 19.9 66 325.5 108 0.0 1.5 5.5 163
11/10/2018 12:10 20.3 64 296.2 74 0.0 1.9 6.7 157
11/10/2018 12:20 20.2 64 223.3 0 0.0 1.7 6.0 177
11/10/2018 12:30 20.1 64 160.4 0 0.0 1.5 5.5 166
11/10/2018 12:40 20.0 64 131.3 0 0.0 1.8 6.3 153
11/10/2018 12:50 20.0 64 155.8 0 0.0 1.9 6.7 177
11/10/2018 13:00 20.1 63 155.9 0 0.0 1.8 6.3 181
11/10/2018 13:10 20.3 62 261.4 98 0.0 1.3 4.6 172
11/10/2018 13:20 21.4 59 647.6 574 0.0 2.3 8.1 177
11/10/2018 13:30 22.4 56 584.1 600 0.0 1.9 6.8 148
11/10/2018 13:40 22.4 55 587.4 580 0.0 2.5 8.8 180
11/10/2018 13:50 22.7 54 444.9 420 0.0 2.1 7.6 184
11/10/2018 14:00 22.5 55 262.1 154 0.0 1.9 6.8 151
11/10/2018 14:10 22.3 55 246.0 114 0.0 2.1 7.6 113
11/10/2018 14:20 21.9 56 123.5 0 0.0 1.6 5.9 157
11/10/2018 14:30 21.6 58 69.2 0 0.0 1.4 5.0 114
11/10/2018 14:40 20.6 66 32.9 0 0.3 1.4 4.9 189
11/10/2018 14:50 19.2 76 40.4 0 0.7 1.6 5.7 157
11/10/2018 15:00 18.5 79 36.3 0 0.0 1.8 6.4 82
11/10/2018 15:10 18.3 82 40.2 0 0.3 1.1 3.9 99
11/10/2018 15:20 18.1 83 98.9 0 0.2 1.2 4.2 148
11/10/2018 15:30 18.2 89 83.3 0 0.0 1.1 3.9 49
11/10/2018 15:40 18.2 86 89.2 0 0.0 1.3 4.8 58
11/10/2018 15:50 18.4 84 61.6 0 0.0 1.3 4.8 74
11/10/2018 16:00 18.8 82 28.9 0 0.0 0.7 2.4 50
11/10/2018 16:10 18.3 86 26.4 0 0.0 1.2 4.4 38
11/10/2018 16:20 18.2 86 56.1 0 0.0 1.1 4.1 66
11/10/2018 16:30 18.5 81 63.3 0 0.0 2.3 8.3 74
11/10/2018 16:40 18.8 81 58.6 0 0.0 1.5 5.5 343
11/10/2018 16:50 18.2 84 34.4 0 0.0 0.8 2.8 37
11/10/2018 17:00 18.5 80 28.7 0 0.0 1.7 6.2 61
11/10/2018 17:10 18.2 82 4.3 0 0.0 1.6 5.6 65
11/10/2018 17:20 17.7 84 0.0 0 0.0 1.2 4.1 65
11/10/2018 17:30 17.4 85 0.0 0 0.0 1.9 6.8 64
11/10/2018 17:40 17.4 85 0.0 0 0.0 1.4 4.9 59
11/10/2018 17:50 17.3 86 0.0 0 0.0 1.4 5.2 64
11/10/2018 18:00 17.6 84 0.0 0 0.0 0.9 3.3 104
11/10/2018 18:10 17.4 88 0.0 0 0.0 0.3 0.9 247
11/10/2018 18:20 17.0 89 0.0 0 0.0 0.7 2.5 63
11/10/2018 18:30 16.9 88 0.0 0 0.0 0.8 2.7 64
11/10/2018 18:40 16.4 91 0.0 0 0.0 0.2 0.8 111
11/10/2018 18:50 16.5 92 0.0 0 0.0 0.3 1.2 14
11/10/2018 19:00 16.6 91 0.0 0 0.0 0.7 2.4 359
11/10/2018 19:10 16.6 90 0.0 0 0.0 1.1 3.8 77
11/10/2018 19:20 17.0 86 0.0 0 0.0 1.1 3.9 72
11/10/2018 19:30 16.7 86 0.0 0 0.0 1.3 4.5 55
11/10/2018 19:40 16.2 88 0.0 0 0.0 0.6 2.3 66
11/10/2018 19:50 16.2 88 0.0 0 0.0 0.2 0.7 44
11/10/2018 20:00 15.7 89 0.0 0 0.0 0.8 2.8 102
11/10/2018 20:10 15.4 90 0.0 0 0.0 1.3 4.6 103
11/10/2018 20:20 15.9 88 0.0 0 0.0 1.2 4.2 113
11/10/2018 20:30 16.4 85 0.0 0 0.0 1.3 4.6 118
11/10/2018 20:40 17.0 82 0.0 0 0.0 1.8 6.4 98
11/10/2018 20:50 17.1 82 0.0 0 0.0 1.1 4.0 95
11/10/2018 21:00 16.9 83 0.0 0 0.0 2.0 7.0 83
11/10/2018 21:10 17.3 81 0.0 0 0.0 2.0 7.3 90
11/10/2018 21:20 17.3 80 0.0 0 0.0 2.2 8.0 91
11/10/2018 21:30 17.2 81 0.0 0 0.0 2.0 7.3 84
11/10/2018 21:40 17.2 81 0.0 0 0.0 0.6 2.0 85
11/10/2018 21:50 17.0 81 0.0 0 0.0 0.9 3.3 59
11/10/2018 22:00 16.5 83 0.0 0 0.0 1.1 4.1 68
11/10/2018 22:10 16.3 84 0.0 0 0.0 0.9 3.3 73
11/10/2018 22:20 16.5 83 0.0 0 0.0 1.0 3.7 59
11/10/2018 22:30 16.6 83 0.0 0 0.0 1.1 4.1 75
11/10/2018 22:40 16.7 82 0.0 0 0.0 1.3 4.8 100
11/10/2018 22:50 16.6 82 0.0 0 0.0 0.8 3.0 86
11/10/2018 23:00 16.3 83 0.0 0 0.0 0.4 1.3 17
11/10/2018 23:10 15.9 85 0.0 0 0.0 1.0 3.7 99
11/10/2018 23:20 15.8 85 0.0 0 0.0 0.6 2.1 101
11/10/2018 23:30 15.9 85 0.0 0 0.0 1.2 4.2 67
11/10/2018 23:40 16.2 83 0.0 0 0.0 1.1 4.0 102
11/10/2018 23:50 16.0 84 0.0 0 0.0 0.7 2.4 108
Anterior Página 1 de 1 Siguiente

NOTA: Tipo de datos según el color:
   - Valores diarios o 10 minutos correctos
   - Valores diarios calculados a partir de un número de datos 10 minutos menor que 144 y mayor que 120, o de un número de datos semihorarios menor que 48 y mayor que 40 (caso de las estaciones de Riegos de Navarra y del MARM)
   - Valores diez minutos estimados


Contacto        Enlaces        Aviso legal